createdAt,value
2022-09-26T00:02:33.895Z,14.30
2022-09-26T00:05:40.272Z,13.60
2022-09-26T00:08:48.245Z,14.73
2022-09-26T00:11:54.277Z,14.77
2022-09-26T00:15:03.492Z,14.30
2022-09-26T00:18:09.261Z,13.77
2022-09-26T00:21:17.882Z,16.43
2022-09-26T00:24:23.525Z,14.37
2022-09-26T00:27:30.708Z,14.00
2022-09-26T00:30:39.479Z,13.97
2022-09-26T00:33:46.046Z,15.03
2022-09-26T00:36:52.865Z,12.93
2022-09-26T00:39:59.432Z,14.83
2022-09-26T00:43:06.435Z,14.27
2022-09-26T00:46:26.030Z,12.33
2022-09-26T00:49:34.798Z,14.07
2022-09-26T00:52:46.159Z,12.90
2022-09-26T00:55:55.836Z,16.53
2022-09-26T00:59:08.605Z,15.10
2022-09-26T01:02:17.748Z,13.03
2022-09-26T01:05:26.916Z,15.40
2022-09-26T01:08:44.753Z,13.90
2022-09-26T01:11:51.592Z,14.43
2022-09-26T01:15:00.065Z,13.03
2022-09-26T01:18:10.997Z,15.40
2022-09-26T01:21:49.888Z,12.23
2022-09-26T01:25:09.397Z,11.77
2022-09-26T01:28:33.683Z,14.03
2022-09-26T01:32:12.938Z,14.87
2022-09-26T01:35:40.577Z,11.97
2022-09-26T01:38:59.376Z,11.47
2022-09-26T01:42:18.206Z,12.73
2022-09-26T01:45:32.078Z,13.23
2022-09-26T01:48:48.545Z,11.43
2022-09-26T01:52:00.026Z,11.90
2022-09-26T01:55:14.180Z,11.80
2022-09-26T01:58:26.124Z,12.13
2022-09-26T02:01:37.437Z,11.77
2022-09-26T02:04:50.582Z,12.43
2022-09-26T02:08:01.096Z,12.07
2022-09-26T02:11:13.939Z,10.60
2022-09-26T02:14:24.351Z,13.50
2022-09-26T02:17:36.595Z,11.27
2022-09-26T02:20:48.807Z,12.73
2022-09-26T02:23:56.551Z,10.03
2022-09-26T02:27:03.198Z,12.20
2022-09-26T02:30:10.734Z,12.17
2022-09-26T02:33:17.355Z,10.17
2022-09-26T02:36:27.295Z,13.53
2022-09-26T02:39:33.361Z,10.47
2022-09-26T02:42:55.317Z,10.83
2022-09-26T02:46:10.987Z,11.97
2022-09-26T02:49:31.673Z,10.03
2022-09-26T02:52:53.988Z,11.47
2022-09-26T02:56:17.542Z,12.10
2022-09-26T02:59:30.089Z,10.67
2022-09-26T03:02:42.182Z,12.07
2022-09-26T03:05:56.683Z,11.63
2022-09-26T03:09:07.947Z,12.37
2022-09-26T03:12:14.704Z,11.90
2022-09-26T03:15:24.590Z,12.53
2022-09-26T03:18:37.230Z,11.73
2022-09-26T03:21:47.534Z,12.03
2022-09-26T03:24:56.292Z,12.33
2022-09-26T03:28:03.892Z,11.90
2022-09-26T03:31:10.390Z,12.80
2022-09-26T03:34:30.546Z,11.13
2022-09-26T03:37:37.484Z,12.63
2022-09-26T03:40:47.594Z,11.63
2022-09-26T03:44:22.538Z,12.37
2022-09-26T03:47:47.705Z,12.37
2022-09-26T03:50:54.622Z,11.17
2022-09-26T03:54:01.270Z,15.33
2022-09-26T03:57:10.785Z,14.27
2022-09-26T04:00:21.948Z,13.63
2022-09-26T04:03:28.047Z,13.33
2022-09-26T04:06:34.675Z,13.43
2022-09-26T04:09:41.161Z,13.67
2022-09-26T04:12:50.552Z,14.00
2022-09-26T04:15:58.701Z,15.20
2022-09-26T04:19:06.867Z,14.03
2022-09-26T04:22:14.137Z,13.77
2022-09-26T04:25:23.851Z,14.60
2022-09-26T04:28:32.291Z,15.93
2022-09-26T04:31:39.621Z,15.00
2022-09-26T04:34:50.996Z,12.63
2022-09-26T04:37:57.495Z,14.53
2022-09-26T04:41:08.325Z,17.23
2022-09-26T04:44:18.079Z,13.40
2022-09-26T04:47:23.690Z,17.33
2022-09-26T04:50:59.695Z,14.70
2022-09-26T04:54:07.176Z,16.70
2022-09-26T04:57:19.830Z,17.97
2022-09-26T05:00:28.707Z,17.73
2022-09-26T05:03:42.247Z,15.10
2022-09-26T05:06:48.016Z,16.17
2022-09-26T05:10:04.221Z,18.87
2022-09-26T05:13:10.747Z,13.37
2022-09-26T05:16:20.338Z,16.87
2022-09-26T05:19:28.341Z,13.93
2022-09-26T05:22:55.605Z,15.77
2022-09-26T05:26:17.460Z,14.17
2022-09-26T05:29:24.647Z,14.00
2022-09-26T05:32:37.724Z,13.53
2022-09-26T05:35:46.283Z,14.90
2022-09-26T05:38:53.988Z,13.20
2022-09-26T05:41:59.619Z,14.13
2022-09-26T05:45:06.922Z,13.00
2022-09-26T05:48:16.493Z,12.83
2022-09-26T05:51:23.776Z,12.67
2022-09-26T05:54:30.489Z,12.37
2022-09-26T05:57:37.496Z,12.87
2022-09-26T06:00:44.055Z,14.37
2022-09-26T06:03:52.541Z,11.73
2022-09-26T06:07:06.705Z,12.40
2022-09-26T06:10:12.459Z,14.33
2022-09-26T06:13:40.624Z,13.00
2022-09-26T06:16:46.612Z,13.00
2022-09-26T06:19:56.633Z,13.63
2022-09-26T06:23:04.297Z,14.90
2022-09-26T06:26:16.367Z,12.80
2022-09-26T06:29:22.049Z,13.53
2022-09-26T06:32:29.574Z,12.27
2022-09-26T06:36:09.461Z,13.27
2022-09-26T06:39:17.125Z,13.70
2022-09-26T06:42:25.524Z,14.90
2022-09-26T06:45:57.999Z,13.83
2022-09-26T06:49:20.021Z,13.10
2022-09-26T06:52:35.123Z,12.20
2022-09-26T06:55:41.799Z,13.47
2022-09-26T06:58:49.999Z,13.33
2022-09-26T07:01:58.938Z,12.67
2022-09-26T07:05:27.785Z,13.73
2022-09-26T07:09:00.796Z,11.57
2022-09-26T07:12:25.361Z,14.63
2022-09-26T07:15:33.696Z,17.47
2022-09-26T07:18:45.129Z,13.37
2022-09-26T07:21:58.540Z,12.80
2022-09-26T07:25:13.262Z,11.00
2022-09-26T07:28:19.367Z,14.13
2022-09-26T07:31:28.195Z,12.37
2022-09-26T07:34:46.569Z,11.57
2022-09-26T07:37:55.252Z,12.20
2022-09-26T07:41:08.803Z,12.07
2022-09-26T07:45:09.713Z,13.13
2022-09-26T07:47:56.764Z,12.50
2022-09-26T07:51:31.102Z,11.57
2022-09-26T07:54:38.153Z,11.83
2022-09-26T07:58:08.704Z,9.83
2022-09-26T08:01:16.758Z,9.00
2022-09-26T08:04:49.203Z,7.63
2022-09-26T08:07:57.572Z,9.63
2022-09-26T08:11:23.420Z,9.20
2022-09-26T08:14:53.155Z,9.20
2022-09-26T08:18:20.237Z,8.30
2022-09-26T08:21:25.970Z,9.40
2022-09-26T08:24:36.264Z,9.57
2022-09-26T08:27:59.670Z,8.20
2022-09-26T08:31:11.737Z,8.73
2022-09-26T08:34:21.330Z,9.07
2022-09-26T08:37:51.153Z,8.20
2022-09-26T08:41:33.017Z,7.93
2022-09-26T08:45:47.508Z,8.27
2022-09-26T08:49:35.379Z,9.00
2022-09-26T08:52:45.822Z,8.90
2022-09-26T08:55:53.897Z,8.47
2022-09-26T08:59:06.076Z,8.43
2022-09-26T09:02:21.568Z,8.07
2022-09-26T09:05:39.891Z,10.10
2022-09-26T09:08:49.674Z,10.10
2022-09-26T09:12:15.076Z,9.97
2022-09-26T09:15:35.394Z,10.63
2022-09-26T09:19:16.967Z,9.40
2022-09-26T09:23:04.264Z,10.33
2022-09-26T09:30:16.640Z,9.60
2022-09-26T09:33:46.373Z,9.73
2022-09-26T09:37:22.848Z,8.80
2022-09-26T09:41:07.010Z,9.17
2022-09-26T09:44:28.325Z,8.60
2022-09-26T09:47:40.682Z,9.87
2022-09-26T09:50:54.813Z,10.40
2022-09-26T09:54:32.201Z,11.60
2022-09-26T09:57:55.446Z,11.40
2022-09-26T10:01:10.840Z,12.37
2022-09-26T10:04:37.742Z,9.83
2022-09-26T10:07:45.270Z,8.73
2022-09-26T10:11:23.321Z,7.77
2022-09-26T10:14:47.915Z,7.07
2022-09-26T10:18:26.685Z,7.10
2022-09-26T10:21:44.991Z,7.57
2022-09-26T10:24:51.209Z,7.40
2022-09-26T10:28:03.413Z,7.90
2022-09-26T10:31:14.536Z,6.87
2022-09-26T10:34:42.996Z,7.23
2022-09-26T10:37:53.711Z,8.27
2022-09-26T10:40:59.942Z,9.53
2022-09-26T10:44:08.372Z,8.83
2022-09-26T10:47:37.744Z,5.87
2022-09-26T10:51:13.618Z,7.57
2022-09-26T10:54:42.053Z,5.57
2022-09-26T10:57:53.369Z,5.27
2022-09-26T11:01:03.773Z,5.00
2022-09-26T11:04:41.209Z,4.93
2022-09-26T11:08:11.991Z,5.00
2022-09-26T11:11:43.290Z,5.03
2022-09-26T11:14:53.393Z,4.57
2022-09-26T11:17:59.664Z,4.63
2022-09-26T11:21:31.688Z,4.07
2022-09-26T11:24:46.835Z,4.73
2022-09-26T11:28:01.233Z,4.40
2022-09-26T11:31:29.959Z,4.47
2022-09-26T11:35:07.197Z,4.77
2022-09-26T11:38:31.340Z,4.93
2022-09-26T11:41:51.390Z,4.17
2022-09-26T11:45:00.991Z,4.00
2022-09-26T11:49:04.226Z,3.83
2022-09-26T11:52:49.218Z,3.53
2022-09-26T11:56:16.053Z,3.20
2022-09-26T11:59:39.186Z,3.23
2022-09-26T12:03:26.585Z,2.60
2022-09-26T12:06:35.975Z,3.20
2022-09-26T12:09:56.397Z,2.93
2022-09-26T12:13:16.574Z,2.70
2022-09-26T12:16:29.651Z,3.40
2022-09-26T12:19:45.222Z,3.07
2022-09-26T12:22:59.273Z,2.60
2022-09-26T12:26:17.257Z,3.73
2022-09-26T12:29:45.378Z,3.70
2022-09-26T12:33:21.952Z,3.33
2022-09-26T12:36:47.637Z,3.47
2022-09-26T12:40:10.372Z,2.90
2022-09-26T12:43:47.541Z,3.30
2022-09-26T12:47:21.412Z,2.70
2022-09-26T12:50:39.890Z,2.23
2022-09-26T12:53:55.833Z,2.83
2022-09-26T12:57:09.903Z,2.70
2022-09-26T13:00:21.745Z,3.50
2022-09-26T13:03:47.936Z,2.93
2022-09-26T13:07:19.334Z,2.93
2022-09-26T13:10:41.103Z,2.90
2022-09-26T13:14:15.035Z,2.70
2022-09-26T13:17:24.326Z,3.30
2022-09-26T13:20:38.247Z,3.23
2022-09-26T13:23:54.052Z,2.87
2022-09-26T13:27:09.337Z,2.47
2022-09-26T13:30:24.460Z,2.63
2022-09-26T13:33:36.873Z,2.27
2022-09-26T13:36:48.186Z,2.40
2022-09-26T13:40:03.705Z,2.40
2022-09-26T13:43:23.804Z,2.77
2022-09-26T13:46:40.135Z,2.77
2022-09-26T13:49:59.062Z,2.47
2022-09-26T13:53:21.525Z,2.93
2022-09-26T13:56:44.236Z,2.73
2022-09-26T13:59:55.425Z,3.20
2022-09-26T14:03:17.473Z,3.30
2022-09-26T14:07:28.586Z,3.40
2022-09-26T14:10:39.407Z,3.30
2022-09-26T14:13:44.980Z,3.33
2022-09-26T14:16:53.220Z,3.40
2022-09-26T14:20:05.140Z,2.90
2022-09-26T14:23:38.613Z,3.30
2022-09-26T14:26:47.743Z,3.37
2022-09-26T14:29:56.488Z,4.27
2022-09-26T14:33:06.315Z,3.27
2022-09-26T14:36:38.038Z,3.60
2022-09-26T14:39:47.033Z,3.67
2022-09-26T14:43:03.319Z,4.43
2022-09-26T14:46:20.664Z,4.03
2022-09-26T14:49:31.326Z,4.47
2022-09-26T14:52:40.038Z,4.47
2022-09-26T14:55:59.344Z,4.30
2022-09-26T14:59:42.572Z,4.20
2022-09-26T15:02:50.614Z,4.37
2022-09-26T15:05:56.434Z,4.63
2022-09-26T15:09:12.574Z,4.67
2022-09-26T15:12:25.427Z,4.23
2022-09-26T15:15:59.371Z,4.67
2022-09-26T15:19:14.228Z,5.00
2022-09-26T15:22:23.961Z,5.60
2022-09-26T15:25:35.787Z,7.53
2022-09-26T15:28:42.436Z,3.90
2022-09-26T15:31:51.486Z,3.17
2022-09-26T15:34:59.140Z,3.33
2022-09-26T15:38:07.126Z,3.87
2022-09-26T15:41:38.230Z,3.50
2022-09-26T15:44:51.218Z,3.27
2022-09-26T15:48:03.355Z,2.97
2022-09-26T15:51:19.283Z,3.40
2022-09-26T15:54:31.387Z,4.33
2022-09-26T15:57:37.289Z,4.23
2022-09-26T16:00:47.759Z,5.17
2022-09-26T16:04:06.265Z,3.90
2022-09-26T16:07:21.925Z,3.40
2022-09-26T16:10:31.361Z,4.20
2022-09-26T16:13:43.130Z,3.93
2022-09-26T16:16:48.885Z,4.20
2022-09-26T16:20:00.519Z,3.80
2022-09-26T16:23:07.679Z,4.97
2022-09-26T16:26:25.042Z,3.37
2022-09-26T16:29:36.012Z,4.20
2022-09-26T16:32:42.564Z,6.23
2022-09-26T16:35:51.889Z,4.50
2022-09-26T16:39:00.885Z,7.80
2022-09-26T16:42:17.450Z,5.93
2022-09-26T16:45:24.030Z,5.50
2022-09-26T16:48:41.979Z,6.20
2022-09-26T16:52:29.710Z,4.33
2022-09-26T16:55:37.930Z,5.00
2022-09-26T16:58:50.868Z,4.70
2022-09-26T17:01:58.244Z,4.10
2022-09-26T17:05:07.206Z,4.63
2022-09-26T17:08:16.433Z,4.67
2022-09-26T17:11:23.162Z,4.90
2022-09-26T17:14:36.742Z,4.63
2022-09-26T17:17:46.836Z,5.30
2022-09-26T17:20:52.917Z,4.73
2022-09-26T17:24:06.358Z,6.10
2022-09-26T17:27:18.219Z,6.30
2022-09-26T17:30:25.165Z,6.23
2022-09-26T17:33:32.576Z,6.07
2022-09-26T17:36:39.488Z,6.40
2022-09-26T17:39:47.915Z,7.20
2022-09-26T17:42:55.825Z,5.50
2022-09-26T17:46:06.902Z,6.10
2022-09-26T17:49:17.867Z,7.43
2022-09-26T17:52:29.148Z,6.20
2022-09-26T17:55:38.853Z,6.70
2022-09-26T17:58:47.298Z,5.80
2022-09-26T18:02:00.446Z,5.83
2022-09-26T18:05:19.076Z,6.07
2022-09-26T18:08:28.878Z,7.47
2022-09-26T18:11:38.229Z,6.40
2022-09-26T18:14:46.499Z,5.90
2022-09-26T18:17:52.782Z,7.10
2022-09-26T18:21:04.092Z,7.03
2022-09-26T18:24:19.460Z,6.93
2022-09-26T18:27:29.592Z,8.93
2022-09-26T18:30:35.458Z,10.13
2022-09-26T18:33:42.475Z,10.00
2022-09-26T18:36:51.761Z,7.53
2022-09-26T18:40:03.631Z,8.80
2022-09-26T18:43:14.427Z,8.63
2022-09-26T18:46:22.984Z,8.50
2022-09-26T18:49:29.433Z,7.87
2022-09-26T18:52:36.235Z,8.10
2022-09-26T18:56:12.259Z,8.50
2022-09-26T18:59:23.588Z,9.93
2022-09-26T19:02:40.749Z,9.57
2022-09-26T19:05:47.514Z,9.53
2022-09-26T19:08:59.339Z,8.83
2022-09-26T19:12:08.392Z,9.00
2022-09-26T19:15:20.602Z,13.00
2022-09-26T19:18:27.743Z,11.77
2022-09-26T19:21:37.305Z,13.40
2022-09-26T19:24:46.719Z,13.37
2022-09-26T19:27:54.576Z,14.53
2022-09-26T19:31:06.442Z,12.53
2022-09-26T19:34:17.154Z,12.13
2022-09-26T19:37:23.924Z,15.17
2022-09-26T19:40:30.873Z,12.67
2022-09-26T19:43:38.141Z,12.13
2022-09-26T19:46:49.119Z,14.97
2022-09-26T19:49:55.948Z,13.77
2022-09-26T19:53:04.637Z,13.60
2022-09-26T19:56:11.977Z,12.00
2022-09-26T19:59:18.200Z,12.37
2022-09-26T20:02:34.460Z,14.57
2022-09-26T20:05:40.260Z,14.23
2022-09-26T20:08:47.401Z,16.30
2022-09-26T20:11:53.417Z,13.00
2022-09-26T20:14:59.933Z,14.30
2022-09-26T20:18:15.581Z,13.63
2022-09-26T20:21:24.882Z,15.23
2022-09-26T20:24:31.540Z,14.13
2022-09-26T20:27:38.235Z,17.67
2022-09-26T20:30:56.914Z,14.30
2022-09-26T20:34:06.398Z,13.40
2022-09-26T20:37:14.241Z,13.00
2022-09-26T20:40:24.473Z,12.90
2022-09-26T20:43:35.128Z,12.43
2022-09-26T20:46:52.509Z,12.33
2022-09-26T20:50:06.265Z,14.57
2022-09-26T20:53:19.561Z,12.90
2022-09-26T20:56:25.582Z,11.30
2022-09-26T20:59:35.143Z,12.63
2022-09-26T21:02:42.315Z,13.87
2022-09-26T21:05:51.652Z,13.73
2022-09-26T21:08:57.608Z,12.53
2022-09-26T21:12:06.253Z,13.27
2022-09-26T21:15:15.331Z,12.03
2022-09-26T21:18:27.151Z,13.60
2022-09-26T21:21:35.571Z,15.03
2022-09-26T21:24:58.089Z,15.37
2022-09-26T21:28:09.359Z,16.30
2022-09-26T21:31:23.967Z,14.17
2022-09-26T21:34:31.126Z,13.40
2022-09-26T21:37:40.620Z,16.20
2022-09-26T21:40:48.046Z,14.07
2022-09-26T21:44:03.322Z,16.90
2022-09-26T21:47:09.118Z,15.00
2022-09-26T21:50:20.465Z,13.40
2022-09-26T21:53:34.818Z,13.33
2022-09-26T21:56:50.601Z,14.20
2022-09-26T21:59:56.803Z,14.70
2022-09-26T22:03:04.020Z,13.27
2022-09-26T22:06:12.640Z,13.70
2022-09-26T22:09:26.107Z,16.13
2022-09-26T22:12:31.796Z,14.70
2022-09-26T22:15:38.415Z,14.57
2022-09-26T22:18:44.683Z,13.27
2022-09-26T22:21:51.288Z,14.73
2022-09-26T22:25:04.090Z,14.00
2022-09-26T22:28:10.943Z,11.80
2022-09-26T22:31:16.730Z,11.27
2022-09-26T22:34:23.637Z,12.27
2022-09-26T22:37:29.407Z,10.57
2022-09-26T22:40:38.810Z,11.07
2022-09-26T22:43:44.683Z,11.67
2022-09-26T22:46:51.203Z,10.07
2022-09-26T22:49:56.886Z,11.43
2022-09-26T22:53:03.472Z,9.33
2022-09-26T22:56:15.164Z,9.77
2022-09-26T22:59:21.868Z,12.57
2022-09-26T23:02:27.625Z,8.97
2022-09-26T23:05:34.170Z,10.77
2022-09-26T23:08:40.491Z,8.60
2022-09-26T23:11:49.892Z,8.70
2022-09-26T23:14:55.662Z,11.53
2022-09-26T23:18:02.851Z,8.27
2022-09-26T23:21:10.250Z,10.43
2022-09-26T23:24:17.264Z,10.63
2022-09-26T23:27:26.441Z,9.60
2022-09-26T23:30:33.480Z,9.60
2022-09-26T23:33:39.471Z,7.73
2022-09-26T23:36:46.953Z,11.40
2022-09-26T23:39:52.904Z,10.83
2022-09-26T23:43:02.819Z,9.13
2022-09-26T23:46:09.692Z,10.83
2022-09-26T23:49:16.330Z,9.80
2022-09-26T23:52:22.173Z,10.83
2022-09-26T23:55:28.757Z,13.67
2022-09-26T23:58:37.357Z,11.47
